sensor_id;sensor_type;location;lat;lon;timestamp;temperature;humidity
46217;DHT22;47258;59.424;13.482;2023-03-15T00:01:58;-1.90;99.90
46217;DHT22;47258;59.424;13.482;2023-03-15T00:04:25;-1.90;99.90
46217;DHT22;47258;59.424;13.482;2023-03-15T00:06:52;-1.90;99.90
46217;DHT22;47258;59.424;13.482;2023-03-15T00:09:21;-1.90;99.90
46217;DHT22;47258;59.424;13.482;2023-03-15T00:11:49;-1.90;99.90
46217;DHT22;47258;59.424;13.482;2023-03-15T00:14:16;-1.90;99.90
46217;DHT22;47258;59.424;13.482;2023-03-15T00:16:43;-1.90;99.90
46217;DHT22;47258;59.424;13.482;2023-03-15T00:19:10;-1.90;99.90
46217;DHT22;47258;59.424;13.482;2023-03-15T00:21:38;-1.90;99.90
46217;DHT22;47258;59.424;13.482;2023-03-15T00:24:08;-1.90;99.90
46217;DHT22;47258;59.424;13.482;2023-03-15T00:26:37;-1.90;99.90
46217;DHT22;47258;59.424;13.482;2023-03-15T00:29:05;-1.90;99.90
46217;DHT22;47258;59.424;13.482;2023-03-15T00:31:32;-1.90;99.90
46217;DHT22;47258;59.424;13.482;2023-03-15T00:34:00;-1.90;99.90
46217;DHT22;47258;59.424;13.482;2023-03-15T00:36:27;-1.90;99.90
46217;DHT22;47258;59.424;13.482;2023-03-15T00:38:55;-1.90;99.90
46217;DHT22;47258;59.424;13.482;2023-03-15T00:41:23;-2.00;99.90
46217;DHT22;47258;59.424;13.482;2023-03-15T00:43:51;-2.00;99.90
46217;DHT22;47258;59.424;13.482;2023-03-15T00:46:19;-2.00;99.90
46217;DHT22;47258;59.424;13.482;2023-03-15T00:48:49;-2.10;99.90
46217;DHT22;47258;59.424;13.482;2023-03-15T00:51:19;-2.10;99.90
46217;DHT22;47258;59.424;13.482;2023-03-15T00:53:48;-2.20;99.90
46217;DHT22;47258;59.424;13.482;2023-03-15T00:56:17;-2.20;99.90
46217;DHT22;47258;59.424;13.482;2023-03-15T00:58:44;-2.20;99.90
46217;DHT22;47258;59.424;13.482;2023-03-15T01:01:14;-2.20;99.90
46217;DHT22;47258;59.424;13.482;2023-03-15T01:03:42;-2.30;99.90
46217;DHT22;47258;59.424;13.482;2023-03-15T01:06:12;-2.30;99.90
46217;DHT22;47258;59.424;13.482;2023-03-15T01:08:39;-2.30;99.90
46217;DHT22;47258;59.424;13.482;2023-03-15T01:11:09;-2.30;99.90
46217;DHT22;47258;59.424;13.482;2023-03-15T01:13:37;-2.30;99.90
46217;DHT22;47258;59.424;13.482;2023-03-15T01:16:05;-2.30;99.90
46217;DHT22;47258;59.424;13.482;2023-03-15T01:18:33;-2.30;99.90
46217;DHT22;47258;59.424;13.482;2023-03-15T01:21:01;-2.30;99.90
46217;DHT22;47258;59.424;13.482;2023-03-15T01:23:28;-2.30;99.90
46217;DHT22;47258;59.424;13.482;2023-03-15T01:25:58;-2.40;99.90
46217;DHT22;47258;59.424;13.482;2023-03-15T01:28:26;-2.40;99.90
46217;DHT22;47258;59.424;13.482;2023-03-15T01:30:54;-2.40;99.90
46217;DHT22;47258;59.424;13.482;2023-03-15T01:33:21;-2.40;99.90
46217;DHT22;47258;59.424;13.482;2023-03-15T01:35:57;-2.40;99.90
46217;DHT22;47258;59.424;13.482;2023-03-15T01:38:24;-2.50;99.90
46217;DHT22;47258;59.424;13.482;2023-03-15T01:40:51;-2.50;99.90
46217;DHT22;47258;59.424;13.482;2023-03-15T01:43:20;-2.50;99.90
46217;DHT22;47258;59.424;13.482;2023-03-15T01:46:11;-2.50;99.90
46217;DHT22;47258;59.424;13.482;2023-03-15T01:48:43;-2.50;99.90
46217;DHT22;47258;59.424;13.482;2023-03-15T01:51:17;-2.50;99.90
46217;DHT22;47258;59.424;13.482;2023-03-15T01:53:50;-2.50;99.90
46217;DHT22;47258;59.424;13.482;2023-03-15T01:56:19;-2.60;99.90
46217;DHT22;47258;59.424;13.482;2023-03-15T01:58:47;-2.60;99.90
46217;DHT22;47258;59.424;13.482;2023-03-15T02:01:16;-2.70;99.90
46217;DHT22;47258;59.424;13.482;2023-03-15T02:03:47;-2.70;99.90
46217;DHT22;47258;59.424;13.482;2023-03-15T02:06:19;-2.80;99.90
46217;DHT22;47258;59.424;13.482;2023-03-15T02:08:50;-2.80;99.90
46217;DHT22;47258;59.424;13.482;2023-03-15T02:11:20;-2.80;99.90
46217;DHT22;47258;59.424;13.482;2023-03-15T02:13:48;-2.80;99.90
46217;DHT22;47258;59.424;13.482;2023-03-15T02:16:16;-2.80;99.90
46217;DHT22;47258;59.424;13.482;2023-03-15T02:18:43;-2.90;99.90
46217;DHT22;47258;59.424;13.482;2023-03-15T02:21:24;-2.90;99.90
46217;DHT22;47258;59.424;13.482;2023-03-15T02:24:04;-2.90;99.90
46217;DHT22;47258;59.424;13.482;2023-03-15T02:26:38;-2.90;99.90
46217;DHT22;47258;59.424;13.482;2023-03-15T02:29:10;-3.00;99.90
46217;DHT22;47258;59.424;13.482;2023-03-15T02:31:37;-3.00;99.90
46217;DHT22;47258;59.424;13.482;2023-03-15T02:34:05;-3.00;99.90
46217;DHT22;47258;59.424;13.482;2023-03-15T02:36:35;-3.00;99.90
46217;DHT22;47258;59.424;13.482;2023-03-15T02:39:12;-3.00;99.90
46217;DHT22;47258;59.424;13.482;2023-03-15T02:41:42;-3.00;99.90
46217;DHT22;47258;59.424;13.482;2023-03-15T02:44:15;-2.90;99.90
46217;DHT22;47258;59.424;13.482;2023-03-15T02:46:45;-2.90;99.90
46217;DHT22;47258;59.424;13.482;2023-03-15T02:49:14;-2.90;99.90
46217;DHT22;47258;59.424;13.482;2023-03-15T02:51:42;-2.90;99.90
46217;DHT22;47258;59.424;13.482;2023-03-15T02:54:09;-2.90;99.90
46217;DHT22;47258;59.424;13.482;2023-03-15T02:56:37;-2.90;99.90
46217;DHT22;47258;59.424;13.482;2023-03-15T02:59:04;-3.00;99.90
46217;DHT22;47258;59.424;13.482;2023-03-15T03:01:32;-3.00;99.90
46217;DHT22;47258;59.424;13.482;2023-03-15T03:04:01;-3.00;99.90
46217;DHT22;47258;59.424;13.482;2023-03-15T03:06:29;-3.10;99.90
46217;DHT22;47258;59.424;13.482;2023-03-15T03:08:56;-3.10;99.90
46217;DHT22;47258;59.424;13.482;2023-03-15T03:11:23;-3.10;99.90
46217;DHT22;47258;59.424;13.482;2023-03-15T03:13:50;-3.10;99.90
46217;DHT22;47258;59.424;13.482;2023-03-15T03:16:17;-3.00;99.90
46217;DHT22;47258;59.424;13.482;2023-03-15T03:18:45;-3.10;99.90
46217;DHT22;47258;59.424;13.482;2023-03-15T03:21:12;-3.10;99.90
46217;DHT22;47258;59.424;13.482;2023-03-15T03:23:39;-3.10;99.90
46217;DHT22;47258;59.424;13.482;2023-03-15T03:26:12;-3.20;99.90
46217;DHT22;47258;59.424;13.482;2023-03-15T03:28:42;-3.20;99.90
46217;DHT22;47258;59.424;13.482;2023-03-15T03:31:15;-3.20;99.90
46217;DHT22;47258;59.424;13.482;2023-03-15T03:33:44;-3.30;99.90
46217;DHT22;47258;59.424;13.482;2023-03-15T03:36:12;-3.30;99.90
46217;DHT22;47258;59.424;13.482;2023-03-15T03:38:40;-3.30;99.90
46217;DHT22;47258;59.424;13.482;2023-03-15T03:41:07;-3.30;99.90
46217;DHT22;47258;59.424;13.482;2023-03-15T03:43:34;-3.30;99.90
46217;DHT22;47258;59.424;13.482;2023-03-15T03:46:02;-3.30;99.90
46217;DHT22;47258;59.424;13.482;2023-03-15T03:48:30;-3.30;99.90
46217;DHT22;47258;59.424;13.482;2023-03-15T03:50:58;-3.30;99.90
46217;DHT22;47258;59.424;13.482;2023-03-15T03:53:25;-3.30;99.90
46217;DHT22;47258;59.424;13.482;2023-03-15T03:55:52;-3.30;99.90
46217;DHT22;47258;59.424;13.482;2023-03-15T03:58:20;-3.30;99.90
46217;DHT22;47258;59.424;13.482;2023-03-15T04:00:48;-3.30;99.90
46217;DHT22;47258;59.424;13.482;2023-03-15T04:03:18;-3.30;99.90
46217;DHT22;47258;59.424;13.482;2023-03-15T04:05:51;-3.30;99.90
46217;DHT22;47258;59.424;13.482;2023-03-15T04:08:20;-3.40;99.90
46217;DHT22;47258;59.424;13.482;2023-03-15T04:10:50;-3.30;99.90
46217;DHT22;47258;59.424;13.482;2023-03-15T04:13:18;-3.30;99.90
46217;DHT22;47258;59.424;13.482;2023-03-15T04:15:45;-3.40;99.90
46217;DHT22;47258;59.424;13.482;2023-03-15T04:18:12;-3.40;99.90
46217;DHT22;47258;59.424;13.482;2023-03-15T04:20:40;-3.40;99.90
46217;DHT22;47258;59.424;13.482;2023-03-15T04:23:12;-3.40;99.90
46217;DHT22;47258;59.424;13.482;2023-03-15T04:25:41;-3.40;99.90
46217;DHT22;47258;59.424;13.482;2023-03-15T04:28:08;-3.40;99.90
46217;DHT22;47258;59.424;13.482;2023-03-15T04:30:36;-3.40;99.90
46217;DHT22;47258;59.424;13.482;2023-03-15T04:33:04;-3.40;99.90
46217;DHT22;47258;59.424;13.482;2023-03-15T04:35:32;-3.40;99.90
46217;DHT22;47258;59.424;13.482;2023-03-15T04:38:00;-3.40;99.90
46217;DHT22;47258;59.424;13.482;2023-03-15T04:40:29;-3.40;99.90
46217;DHT22;47258;59.424;13.482;2023-03-15T04:43:02;-3.50;99.90
46217;DHT22;47258;59.424;13.482;2023-03-15T04:45:30;-3.50;99.90
46217;DHT22;47258;59.424;13.482;2023-03-15T04:47:57;-3.50;99.90
46217;DHT22;47258;59.424;13.482;2023-03-15T04:50:26;-3.50;99.90
46217;DHT22;47258;59.424;13.482;2023-03-15T04:52:53;-3.50;99.90
46217;DHT22;47258;59.424;13.482;2023-03-15T04:55:20;-3.60;99.90
46217;DHT22;47258;59.424;13.482;2023-03-15T04:57:48;-3.50;99.90
46217;DHT22;47258;59.424;13.482;2023-03-15T05:00:17;-3.60;99.90
46217;DHT22;47258;59.424;13.482;2023-03-15T05:02:44;-3.60;99.90
46217;DHT22;47258;59.424;13.482;2023-03-15T05:05:16;-3.60;99.90
46217;DHT22;47258;59.424;13.482;2023-03-15T05:07:43;-3.60;99.90
46217;DHT22;47258;59.424;13.482;2023-03-15T05:10:11;-3.60;99.90
46217;DHT22;47258;59.424;13.482;2023-03-15T05:12:38;-3.70;99.90
46217;DHT22;47258;59.424;13.482;2023-03-15T05:15:06;-3.60;99.90
46217;DHT22;47258;59.424;13.482;2023-03-15T05:17:35;-3.60;99.90
46217;DHT22;47258;59.424;13.482;2023-03-15T05:20:02;-3.70;99.90
46217;DHT22;47258;59.424;13.482;2023-03-15T05:22:35;-3.70;99.90
46217;DHT22;47258;59.424;13.482;2023-03-15T05:25:02;-3.70;99.90
46217;DHT22;47258;59.424;13.482;2023-03-15T05:27:29;-3.70;99.90
46217;DHT22;47258;59.424;13.482;2023-03-15T05:29:58;-3.70;99.90
46217;DHT22;47258;59.424;13.482;2023-03-15T05:32:27;-3.80;99.90
46217;DHT22;47258;59.424;13.482;2023-03-15T05:35:00;-3.80;99.90
46217;DHT22;47258;59.424;13.482;2023-03-15T05:37:27;-3.80;99.90
46217;DHT22;47258;59.424;13.482;2023-03-15T05:39:55;-3.80;99.90
46217;DHT22;47258;59.424;13.482;2023-03-15T05:42:22;-3.80;99.90
46217;DHT22;47258;59.424;13.482;2023-03-15T05:44:51;-3.90;99.90
46217;DHT22;47258;59.424;13.482;2023-03-15T05:47:18;-3.90;99.90
46217;DHT22;47258;59.424;13.482;2023-03-15T05:49:45;-3.90;99.90
46217;DHT22;47258;59.424;13.482;2023-03-15T05:52:14;-3.90;99.90
46217;DHT22;47258;59.424;13.482;2023-03-15T05:54:41;-3.90;99.90
46217;DHT22;47258;59.424;13.482;2023-03-15T05:57:09;-3.90;99.90
46217;DHT22;47258;59.424;13.482;2023-03-15T05:59:36;-3.90;99.90
46217;DHT22;47258;59.424;13.482;2023-03-15T06:02:03;-3.90;99.90
46217;DHT22;47258;59.424;13.482;2023-03-15T06:04:30;-3.90;99.90
46217;DHT22;47258;59.424;13.482;2023-03-15T06:06:57;-3.90;99.90
46217;DHT22;47258;59.424;13.482;2023-03-15T06:09:26;-3.90;99.90
46217;DHT22;47258;59.424;13.482;2023-03-15T06:11:53;-3.90;99.90
46217;DHT22;47258;59.424;13.482;2023-03-15T06:14:20;-3.90;99.90
46217;DHT22;47258;59.424;13.482;2023-03-15T06:16:47;-3.90;99.90
46217;DHT22;47258;59.424;13.482;2023-03-15T06:19:14;-3.90;99.90
46217;DHT22;47258;59.424;13.482;2023-03-15T06:21:41;-3.80;99.90
46217;DHT22;47258;59.424;13.482;2023-03-15T06:24:08;-3.80;99.90
46217;DHT22;47258;59.424;13.482;2023-03-15T06:26:37;-3.80;99.90
46217;DHT22;47258;59.424;13.482;2023-03-15T06:29:04;-3.70;99.90
46217;DHT22;47258;59.424;13.482;2023-03-15T06:31:31;-3.70;99.90
46217;DHT22;47258;59.424;13.482;2023-03-15T06:33:59;-3.70;99.90
46217;DHT22;47258;59.424;13.482;2023-03-15T06:36:26;-3.60;99.90
46217;DHT22;47258;59.424;13.482;2023-03-15T06:38:53;-3.60;99.90
46217;DHT22;47258;59.424;13.482;2023-03-15T06:41:20;-3.50;99.90
46217;DHT22;47258;59.424;13.482;2023-03-15T06:43:48;-3.40;99.90
46217;DHT22;47258;59.424;13.482;2023-03-15T06:46:15;-3.40;99.90
46217;DHT22;47258;59.424;13.482;2023-03-15T06:48:42;-3.40;99.90
46217;DHT22;47258;59.424;13.482;2023-03-15T06:51:10;-3.30;99.90
46217;DHT22;47258;59.424;13.482;2023-03-15T06:53:37;-3.30;99.90
46217;DHT22;47258;59.424;13.482;2023-03-15T06:56:04;-3.20;99.90
46217;DHT22;47258;59.424;13.482;2023-03-15T06:58:31;-3.20;99.90
46217;DHT22;47258;59.424;13.482;2023-03-15T07:01:00;-3.00;99.90
46217;DHT22;47258;59.424;13.482;2023-03-15T07:03:27;-2.80;99.90
46217;DHT22;47258;59.424;13.482;2023-03-15T07:05:54;-2.60;99.90
46217;DHT22;47258;59.424;13.482;2023-03-15T07:08:22;-2.30;99.90
46217;DHT22;47258;59.424;13.482;2023-03-15T07:10:51;-2.20;99.90
46217;DHT22;47258;59.424;13.482;2023-03-15T07:13:18;-1.80;99.90
46217;DHT22;47258;59.424;13.482;2023-03-15T07:15:49;-1.50;99.90
46217;DHT22;47258;59.424;13.482;2023-03-15T07:18:18;-1.60;99.90
46217;DHT22;47258;59.424;13.482;2023-03-15T07:20:45;-1.50;99.90
46217;DHT22;47258;59.424;13.482;2023-03-15T07:23:12;-0.50;99.90
46217;DHT22;47258;59.424;13.482;2023-03-15T07:25:39;1.60;99.90
46217;DHT22;47258;59.424;13.482;2023-03-15T07:28:06;3.50;99.90
46217;DHT22;47258;59.424;13.482;2023-03-15T07:30:33;3.80;99.90
46217;DHT22;47258;59.424;13.482;2023-03-15T07:33:00;3.50;99.90
46217;DHT22;47258;59.424;13.482;2023-03-15T07:35:29;3.90;99.90
46217;DHT22;47258;59.424;13.482;2023-03-15T07:37:56;3.90;99.90
46217;DHT22;47258;59.424;13.482;2023-03-15T07:40:23;4.40;99.90
46217;DHT22;47258;59.424;13.482;2023-03-15T07:42:51;5.10;99.90
46217;DHT22;47258;59.424;13.482;2023-03-15T07:45:18;6.10;99.90
46217;DHT22;47258;59.424;13.482;2023-03-15T07:47:45;7.00;99.90
46217;DHT22;47258;59.424;13.482;2023-03-15T07:50:12;8.00;99.90
46217;DHT22;47258;59.424;13.482;2023-03-15T07:52:41;9.70;99.90
46217;DHT22;47258;59.424;13.482;2023-03-15T07:55:09;11.80;99.90
46217;DHT22;47258;59.424;13.482;2023-03-15T07:57:36;13.60;99.90
46217;DHT22;47258;59.424;13.482;2023-03-15T08:00:03;15.00;99.10
46217;DHT22;47258;59.424;13.482;2023-03-15T08:02:31;15.70;93.60
46217;DHT22;47258;59.424;13.482;2023-03-15T08:04:58;16.90;90.40
46217;DHT22;47258;59.424;13.482;2023-03-15T08:07:25;17.70;83.10
46217;DHT22;47258;59.424;13.482;2023-03-15T08:09:54;18.50;77.30
46217;DHT22;47258;59.424;13.482;2023-03-15T08:12:22;18.90;70.90
46217;DHT22;47258;59.424;13.482;2023-03-15T08:14:49;18.80;68.30
46217;DHT22;47258;59.424;13.482;2023-03-15T08:17:17;18.90;65.80
46217;DHT22;47258;59.424;13.482;2023-03-15T08:19:45;19.30;62.90
46217;DHT22;47258;59.424;13.482;2023-03-15T08:22:12;19.70;61.90
46217;DHT22;47258;59.424;13.482;2023-03-15T08:24:39;19.70;59.60
46217;DHT22;47258;59.424;13.482;2023-03-15T08:27:08;19.50;60.10
46217;DHT22;47258;59.424;13.482;2023-03-15T08:29:35;19.40;59.20
46217;DHT22;47258;59.424;13.482;2023-03-15T08:32:02;19.20;59.20
46217;DHT22;47258;59.424;13.482;2023-03-15T08:34:30;18.10;57.70
46217;DHT22;47258;59.424;13.482;2023-03-15T08:36:59;17.00;59.80
46217;DHT22;47258;59.424;13.482;2023-03-15T08:39:26;16.40;61.40
46217;DHT22;47258;59.424;13.482;2023-03-15T08:41:53;16.00;62.70
46217;DHT22;47258;59.424;13.482;2023-03-15T08:44:22;15.70;63.20
46217;DHT22;47258;59.424;13.482;2023-03-15T08:46:49;14.90;63.30
46217;DHT22;47258;59.424;13.482;2023-03-15T08:49:16;14.60;63.40
46217;DHT22;47258;59.424;13.482;2023-03-15T08:51:43;13.90;64.90
46217;DHT22;47258;59.424;13.482;2023-03-15T08:54:10;14.00;65.30
46217;DHT22;47258;59.424;13.482;2023-03-15T08:56:38;14.70;66.20
46217;DHT22;47258;59.424;13.482;2023-03-15T08:59:06;14.80;64.10
46217;DHT22;47258;59.424;13.482;2023-03-15T09:01:34;14.40;63.60
46217;DHT22;47258;59.424;13.482;2023-03-15T09:04:01;13.10;64.80
46217;DHT22;47258;59.424;13.482;2023-03-15T09:06:28;13.30;67.00
46217;DHT22;47258;59.424;13.482;2023-03-15T09:08:55;14.50;66.20
46217;DHT22;47258;59.424;13.482;2023-03-15T09:11:23;15.30;64.80
46217;DHT22;47258;59.424;13.482;2023-03-15T09:13:50;16.30;63.10
46217;DHT22;47258;59.424;13.482;2023-03-15T09:16:17;16.10;60.40
46217;DHT22;47258;59.424;13.482;2023-03-15T09:18:45;16.40;62.20
46217;DHT22;47258;59.424;13.482;2023-03-15T09:21:12;17.20;59.30
46217;DHT22;47258;59.424;13.482;2023-03-15T09:23:39;15.60;59.80
46217;DHT22;47258;59.424;13.482;2023-03-15T09:26:06;14.40;62.20
46217;DHT22;47258;59.424;13.482;2023-03-15T09:28:33;13.80;64.20
46217;DHT22;47258;59.424;13.482;2023-03-15T09:31:03;12.40;67.00
46217;DHT22;47258;59.424;13.482;2023-03-15T09:33:31;11.00;69.70
46217;DHT22;47258;59.424;13.482;2023-03-15T09:36:00;9.80;72.40
46217;DHT22;47258;59.424;13.482;2023-03-15T09:38:27;8.80;74.40
46217;DHT22;47258;59.424;13.482;2023-03-15T09:40:56;8.10;77.00
46217;DHT22;47258;59.424;13.482;2023-03-15T09:43:53;7.50;78.40
46217;DHT22;47258;59.424;13.482;2023-03-15T09:46:26;7.00;80.30
46217;DHT22;47258;59.424;13.482;2023-03-15T09:48:59;6.60;81.60
46217;DHT22;47258;59.424;13.482;2023-03-15T09:51:33;6.40;82.70
46217;DHT22;47258;59.424;13.482;2023-03-15T09:54:04;6.10;84.10
46217;DHT22;47258;59.424;13.482;2023-03-15T09:56:36;5.90;85.20
46217;DHT22;47258;59.424;13.482;2023-03-15T09:59:05;5.80;86.00
46217;DHT22;47258;59.424;13.482;2023-03-15T10:01:35;5.70;86.30
46217;DHT22;47258;59.424;13.482;2023-03-15T10:04:09;5.60;87.30
46217;DHT22;47258;59.424;13.482;2023-03-15T10:06:42;5.60;88.90
46217;DHT22;47258;59.424;13.482;2023-03-15T10:09:16;5.40;88.70
46217;DHT22;47258;59.424;13.482;2023-03-15T10:11:50;5.40;90.00
46217;DHT22;47258;59.424;13.482;2023-03-15T10:14:29;5.40;89.50
46217;DHT22;47258;59.424;13.482;2023-03-15T10:17:05;5.50;90.00
46217;DHT22;47258;59.424;13.482;2023-03-15T10:19:42;5.60;90.30
46217;DHT22;47258;59.424;13.482;2023-03-15T10:22:20;5.60;90.50
46217;DHT22;47258;59.424;13.482;2023-03-15T10:24:52;5.60;89.30
46217;DHT22;47258;59.424;13.482;2023-03-15T10:27:23;5.60;90.00
46217;DHT22;47258;59.424;13.482;2023-03-15T10:29:54;5.60;89.50
46217;DHT22;47258;59.424;13.482;2023-03-15T10:32:26;5.60;90.30
46217;DHT22;47258;59.424;13.482;2023-03-15T10:34:55;5.60;89.10
46217;DHT22;47258;59.424;13.482;2023-03-15T10:37:24;5.40;88.50
46217;DHT22;47258;59.424;13.482;2023-03-15T10:39:54;5.40;90.00
46217;DHT22;47258;59.424;13.482;2023-03-15T10:42:30;5.40;89.80
46217;DHT22;47258;59.424;13.482;2023-03-15T10:44:58;5.40;90.20
46217;DHT22;47258;59.424;13.482;2023-03-15T10:47:26;5.40;90.10
46217;DHT22;47258;59.424;13.482;2023-03-15T10:49:57;5.40;90.30
46217;DHT22;47258;59.424;13.482;2023-03-15T10:52:33;5.30;90.20
46217;DHT22;47258;59.424;13.482;2023-03-15T10:55:03;5.30;90.30
46217;DHT22;47258;59.424;13.482;2023-03-15T10:57:34;5.20;90.50
46217;DHT22;47258;59.424;13.482;2023-03-15T11:00:17;5.20;90.50
46217;DHT22;47258;59.424;13.482;2023-03-15T11:02:50;5.30;90.60
46217;DHT22;47258;59.424;13.482;2023-03-15T11:05:18;5.30;90.80
46217;DHT22;47258;59.424;13.482;2023-03-15T11:07:55;5.30;91.00
46217;DHT22;47258;59.424;13.482;2023-03-15T11:10:24;5.30;91.10
46217;DHT22;47258;59.424;13.482;2023-03-15T11:13:16;5.30;90.80
46217;DHT22;47258;59.424;13.482;2023-03-15T11:15:58;5.40;91.10
46217;DHT22;47258;59.424;13.482;2023-03-15T11:18:34;5.40;90.80
46217;DHT22;47258;59.424;13.482;2023-03-15T11:21:04;5.50;91.40
46217;DHT22;47258;59.424;13.482;2023-03-15T11:23:36;5.50;91.20
46217;DHT22;47258;59.424;13.482;2023-03-15T11:26:04;5.50;90.90
46217;DHT22;47258;59.424;13.482;2023-03-15T11:28:34;5.40;90.40
46217;DHT22;47258;59.424;13.482;2023-03-15T11:31:03;5.30;91.20
46217;DHT22;47258;59.424;13.482;2023-03-15T11:33:44;5.40;92.10
46217;DHT22;47258;59.424;13.482;2023-03-15T11:36:17;5.40;91.70
46217;DHT22;47258;59.424;13.482;2023-03-15T11:38:47;5.40;91.10
46217;DHT22;47258;59.424;13.482;2023-03-15T11:41:22;5.30;91.60
46217;DHT22;47258;59.424;13.482;2023-03-15T11:44:02;5.30;91.10
46217;DHT22;47258;59.424;13.482;2023-03-15T11:46:33;5.30;91.10
46217;DHT22;47258;59.424;13.482;2023-03-15T11:49:09;5.20;91.30
46217;DHT22;47258;59.424;13.482;2023-03-15T11:51:39;5.20;91.90
46217;DHT22;47258;59.424;13.482;2023-03-15T11:54:13;5.20;91.50
46217;DHT22;47258;59.424;13.482;2023-03-15T11:56:51;5.20;91.60
46217;DHT22;47258;59.424;13.482;2023-03-15T11:59:23;5.20;91.30
46217;DHT22;47258;59.424;13.482;2023-03-15T12:01:55;5.20;91.80
46217;DHT22;47258;59.424;13.482;2023-03-15T12:04:37;5.30;91.70
46217;DHT22;47258;59.424;13.482;2023-03-15T12:07:05;5.40;92.20
46217;DHT22;47258;59.424;13.482;2023-03-15T12:09:48;5.40;92.30
46217;DHT22;47258;59.424;13.482;2023-03-15T12:12:36;5.50;91.80
46217;DHT22;47258;59.424;13.482;2023-03-15T12:15:06;5.50;91.90
46217;DHT22;47258;59.424;13.482;2023-03-15T12:17:45;5.50;91.90
46217;DHT22;47258;59.424;13.482;2023-03-15T12:20:20;5.50;92.30
46217;DHT22;47258;59.424;13.482;2023-03-15T12:23:03;5.60;92.10
46217;DHT22;47258;59.424;13.482;2023-03-15T12:25:37;5.60;91.50
46217;DHT22;47258;59.424;13.482;2023-03-15T12:28:07;5.50;91.50
46217;DHT22;47258;59.424;13.482;2023-03-15T12:30:39;5.60;91.40
46217;DHT22;47258;59.424;13.482;2023-03-15T12:33:14;5.60;91.20
46217;DHT22;47258;59.424;13.482;2023-03-15T12:35:41;5.50;91.60
46217;DHT22;47258;59.424;13.482;2023-03-15T12:38:14;5.50;90.80
46217;DHT22;47258;59.424;13.482;2023-03-15T12:40:51;5.50;91.70
46217;DHT22;47258;59.424;13.482;2023-03-15T12:43:36;5.50;90.10
46217;DHT22;47258;59.424;13.482;2023-03-15T12:46:04;5.40;90.40
46217;DHT22;47258;59.424;13.482;2023-03-15T12:48:31;5.40;90.30
46217;DHT22;47258;59.424;13.482;2023-03-15T12:51:00;5.40;91.40
46217;DHT22;47258;59.424;13.482;2023-03-15T12:53:46;5.40;91.50
46217;DHT22;47258;59.424;13.482;2023-03-15T12:56:31;5.40;91.60
46217;DHT22;47258;59.424;13.482;2023-03-15T12:59:03;5.50;92.60
46217;DHT22;47258;59.424;13.482;2023-03-15T13:01:33;5.50;92.40
46217;DHT22;47258;59.424;13.482;2023-03-15T13:04:02;5.50;92.10
46217;DHT22;47258;59.424;13.482;2023-03-15T13:06:42;5.50;92.10
46217;DHT22;47258;59.424;13.482;2023-03-15T13:09:19;5.50;91.80
46217;DHT22;47258;59.424;13.482;2023-03-15T13:11:54;5.50;91.90
46217;DHT22;47258;59.424;13.482;2023-03-15T13:14:37;5.60;92.10
46217;DHT22;47258;59.424;13.482;2023-03-15T13:17:15;5.50;91.40
46217;DHT22;47258;59.424;13.482;2023-03-15T13:19:49;5.60;91.90
46217;DHT22;47258;59.424;13.482;2023-03-15T13:22:26;5.60;92.00
46217;DHT22;47258;59.424;13.482;2023-03-15T13:25:01;5.70;92.20
46217;DHT22;47258;59.424;13.482;2023-03-15T13:27:46;5.60;92.40
46217;DHT22;47258;59.424;13.482;2023-03-15T13:30:32;5.60;92.50
46217;DHT22;47258;59.424;13.482;2023-03-15T13:33:11;5.60;92.60
46217;DHT22;47258;59.424;13.482;2023-03-15T13:35:42;5.70;92.60
46217;DHT22;47258;59.424;13.482;2023-03-15T13:38:25;5.70;93.10
46217;DHT22;47258;59.424;13.482;2023-03-15T13:40:53;5.70;91.50
46217;DHT22;47258;59.424;13.482;2023-03-15T13:43:24;5.70;92.10
46217;DHT22;47258;59.424;13.482;2023-03-15T13:45:51;5.70;92.30
46217;DHT22;47258;59.424;13.482;2023-03-15T13:48:19;5.70;92.80
46217;DHT22;47258;59.424;13.482;2023-03-15T13:50:48;5.70;92.50
46217;DHT22;47258;59.424;13.482;2023-03-15T13:53:19;5.70;92.90
46217;DHT22;47258;59.424;13.482;2023-03-15T13:55:48;5.70;92.70
46217;DHT22;47258;59.424;13.482;2023-03-15T13:58:18;5.70;92.70
46217;DHT22;47258;59.424;13.482;2023-03-15T14:00:47;5.70;93.20
46217;DHT22;47258;59.424;13.482;2023-03-15T14:03:19;5.70;93.00
46217;DHT22;47258;59.424;13.482;2023-03-15T14:05:49;5.70;93.40
46217;DHT22;47258;59.424;13.482;2023-03-15T14:08:21;5.70;93.40
46217;DHT22;47258;59.424;13.482;2023-03-15T14:11:00;5.70;93.30
46217;DHT22;47258;59.424;13.482;2023-03-15T14:13:29;5.70;93.50
46217;DHT22;47258;59.424;13.482;2023-03-15T14:16:01;5.80;92.90
46217;DHT22;47258;59.424;13.482;2023-03-15T14:18:33;5.70;93.20
46217;DHT22;47258;59.424;13.482;2023-03-15T14:21:04;5.80;93.40
46217;DHT22;47258;59.424;13.482;2023-03-15T14:23:36;5.80;94.10
46217;DHT22;47258;59.424;13.482;2023-03-15T14:26:11;5.80;93.00
46217;DHT22;47258;59.424;13.482;2023-03-15T14:28:39;5.70;92.60
46217;DHT22;47258;59.424;13.482;2023-03-15T14:31:19;5.70;92.90
46217;DHT22;47258;59.424;13.482;2023-03-15T14:33:52;5.70;93.30
46217;DHT22;47258;59.424;13.482;2023-03-15T14:36:22;5.80;93.60
46217;DHT22;47258;59.424;13.482;2023-03-15T14:38:51;5.80;93.80
46217;DHT22;47258;59.424;13.482;2023-03-15T14:41:23;5.80;94.30
46217;DHT22;47258;59.424;13.482;2023-03-15T14:43:51;5.90;94.20
46217;DHT22;47258;59.424;13.482;2023-03-15T14:46:19;5.90;94.00
46217;DHT22;47258;59.424;13.482;2023-03-15T14:48:48;6.00;94.10
46217;DHT22;47258;59.424;13.482;2023-03-15T14:51:18;6.00;93.80
46217;DHT22;47258;59.424;13.482;2023-03-15T14:53:45;6.00;93.90
46217;DHT22;47258;59.424;13.482;2023-03-15T14:56:14;6.00;93.70
46217;DHT22;47258;59.424;13.482;2023-03-15T14:58:42;6.00;93.60
46217;DHT22;47258;59.424;13.482;2023-03-15T15:01:12;5.90;93.90
46217;DHT22;47258;59.424;13.482;2023-03-15T15:03:43;5.90;94.20
46217;DHT22;47258;59.424;13.482;2023-03-15T15:06:14;5.90;94.30
46217;DHT22;47258;59.424;13.482;2023-03-15T15:08:41;6.00;94.60
46217;DHT22;47258;59.424;13.482;2023-03-15T15:11:10;6.10;94.60
46217;DHT22;47258;59.424;13.482;2023-03-15T15:13:38;6.10;94.30
46217;DHT22;47258;59.424;13.482;2023-03-15T15:16:06;6.20;94.60
46217;DHT22;47258;59.424;13.482;2023-03-15T15:18:34;6.20;94.30
46217;DHT22;47258;59.424;13.482;2023-03-15T15:21:11;6.20;94.20
46217;DHT22;47258;59.424;13.482;2023-03-15T15:23:40;6.10;94.10
46217;DHT22;47258;59.424;13.482;2023-03-15T15:26:17;6.10;94.20
46217;DHT22;47258;59.424;13.482;2023-03-15T15:28:45;6.00;94.10
46217;DHT22;47258;59.424;13.482;2023-03-15T15:31:14;5.90;94.20
46217;DHT22;47258;59.424;13.482;2023-03-15T15:33:41;5.80;94.10
46217;DHT22;47258;59.424;13.482;2023-03-15T15:36:24;5.70;93.90
46217;DHT22;47258;59.424;13.482;2023-03-15T15:38:51;5.60;94.10
46217;DHT22;47258;59.424;13.482;2023-03-15T15:41:21;5.50;94.50